sensor_id;sensor_type;location;lat;lon;timestamp;P1;durP1;ratioP1;P2;durP2;ratioP2
70560;SDS011;58109;53.570;10.084;2023-06-22T00:01:20;2266.67;;;442.33;;
70560;SDS011;58109;53.570;10.084;2023-06-22T00:03:47;2266.67;;;453.53;;
70560;SDS011;58109;53.570;10.084;2023-06-22T00:06:12;1164.47;;;289.40;;
70560;SDS011;58109;53.570;10.084;2023-06-22T00:08:40;1875.57;;;394.87;;
70560;SDS011;58109;53.570;10.084;2023-06-22T00:11:06;1911.47;;;398.97;;
70560;SDS011;58109;53.570;10.084;2023-06-22T00:13:33;2266.67;;;463.00;;
70560;SDS011;58109;53.570;10.084;2023-06-22T00:15:58;1398.63;;;326.17;;
70560;SDS011;58109;53.570;10.084;2023-06-22T00:18:24;1941.43;;;400.10;;
70560;SDS011;58109;53.570;10.084;2023-06-22T00:20:53;2261.77;;;437.33;;
70560;SDS011;58109;53.570;10.084;2023-06-22T00:23:22;2266.67;;;448.50;;
70560;SDS011;58109;53.570;10.084;2023-06-22T00:25:50;1265.50;;;306.10;;
70560;SDS011;58109;53.570;10.084;2023-06-22T00:28:16;1859.53;;;390.23;;
70560;SDS011;58109;53.570;10.084;2023-06-22T00:30:41;2266.67;;;468.10;;
70560;SDS011;58109;53.570;10.084;2023-06-22T00:33:10;1703.20;;;367.17;;
70560;SDS011;58109;53.570;10.084;2023-06-22T00:35:36;2266.67;;;497.17;;
70560;SDS011;58109;53.570;10.084;2023-06-22T00:38:01;2266.67;;;509.00;;
70560;SDS011;58109;53.570;10.084;2023-06-22T00:40:28;2266.67;;;544.00;;
70560;SDS011;58109;53.570;10.084;2023-06-22T00:43:00;2266.67;;;571.03;;
70560;SDS011;58109;53.570;10.084;2023-06-22T00:45:28;1068.73;;;272.73;;
70560;SDS011;58109;53.570;10.084;2023-06-22T00:47:56;2149.47;;;414.83;;
70560;SDS011;58109;53.570;10.084;2023-06-22T00:50:22;2266.67;;;532.07;;
70560;SDS011;58109;53.570;10.084;2023-06-22T00:52:53;2266.67;;;458.97;;
70560;SDS011;58109;53.570;10.084;2023-06-22T00:55:23;2266.67;;;607.50;;
70560;SDS011;58109;53.570;10.084;2023-06-22T00:57:48;2266.67;;;597.63;;
70560;SDS011;58109;53.570;10.084;2023-06-22T01:00:15;2266.67;;;450.20;;
70560;SDS011;58109;53.570;10.084;2023-06-22T01:02:45;2266.67;;;582.60;;
70560;SDS011;58109;53.570;10.084;2023-06-22T01:05:17;2266.67;;;653.83;;
70560;SDS011;58109;53.570;10.084;2023-06-22T01:16:53;2266.67;;;455.73;;
70560;SDS011;58109;53.570;10.084;2023-06-22T01:18:57;2266.67;;;620.00;;
70560;SDS011;58109;53.570;10.084;2023-06-22T01:21:31;1865.27;;;388.90;;
70560;SDS011;58109;53.570;10.084;2023-06-22T01:27:08;2266.67;;;607.23;;
70560;SDS011;58109;53.570;10.084;2023-06-22T01:29:48;2266.67;;;593.87;;
70560;SDS011;58109;53.570;10.084;2023-06-22T01:32:15;2266.67;;;566.07;;
70560;SDS011;58109;53.570;10.084;2023-06-22T01:34:40;2266.67;;;628.00;;
70560;SDS011;58109;53.570;10.084;2023-06-22T01:37:06;2266.67;;;518.13;;
70560;SDS011;58109;53.570;10.084;2023-06-22T01:39:35;2266.67;;;518.60;;
70560;SDS011;58109;53.570;10.084;2023-06-22T01:42:03;1763.03;;;375.73;;
70560;SDS011;58109;53.570;10.084;2023-06-22T01:44:30;2266.67;;;482.77;;
70560;SDS011;58109;53.570;10.084;2023-06-22T01:47:01;2266.67;;;490.33;;
70560;SDS011;58109;53.570;10.084;2023-06-22T01:49:26;2266.67;;;534.03;;
70560;SDS011;58109;53.570;10.084;2023-06-22T01:51:52;2266.67;;;551.23;;
70560;SDS011;58109;53.570;10.084;2023-06-22T01:54:19;2266.67;;;598.57;;
70560;SDS011;58109;53.570;10.084;2023-06-22T01:56:44;2266.67;;;620.23;;
70560;SDS011;58109;53.570;10.084;2023-06-22T02:02:01;2266.67;;;561.93;;
70560;SDS011;58109;53.570;10.084;2023-06-22T02:04:36;2266.67;;;591.80;;
70560;SDS011;58109;53.570;10.084;2023-06-22T02:07:05;2266.67;;;551.77;;
70560;SDS011;58109;53.570;10.084;2023-06-22T02:09:32;2266.67;;;528.47;;
70560;SDS011;58109;53.570;10.084;2023-06-22T02:12:05;2266.67;;;575.80;;
70560;SDS011;58109;53.570;10.084;2023-06-22T02:14:32;2266.67;;;649.37;;
70560;SDS011;58109;53.570;10.084;2023-06-22T02:16:58;2266.67;;;571.53;;
70560;SDS011;58109;53.570;10.084;2023-06-22T02:19:24;2206.70;;;433.93;;
70560;SDS011;58109;53.570;10.084;2023-06-22T02:21:54;2235.93;;;438.63;;
70560;SDS011;58109;53.570;10.084;2023-06-22T02:24:22;2266.67;;;483.57;;
70560;SDS011;58109;53.570;10.084;2023-06-22T02:26:55;2100.40;;;419.43;;
70560;SDS011;58109;53.570;10.084;2023-06-22T02:29:22;2266.67;;;469.27;;
70560;SDS011;58109;53.570;10.084;2023-06-22T02:31:50;2266.67;;;508.53;;
70560;SDS011;58109;53.570;10.084;2023-06-22T02:34:20;2266.67;;;551.20;;
70560;SDS011;58109;53.570;10.084;2023-06-22T02:36:46;2266.67;;;527.70;;
70560;SDS011;58109;53.570;10.084;2023-06-22T02:39:23;2266.67;;;633.53;;
70560;SDS011;58109;53.570;10.084;2023-06-22T02:41:53;2266.67;;;545.97;;
70560;SDS011;58109;53.570;10.084;2023-06-22T02:44:19;2266.67;;;646.77;;
70560;SDS011;58109;53.570;10.084;2023-06-22T02:46:45;2266.67;;;520.37;;
70560;SDS011;58109;53.570;10.084;2023-06-22T02:49:11;2266.67;;;595.40;;
70560;SDS011;58109;53.570;10.084;2023-06-22T02:51:41;2266.67;;;512.17;;
70560;SDS011;58109;53.570;10.084;2023-06-22T02:54:09;2266.67;;;578.93;;
70560;SDS011;58109;53.570;10.084;2023-06-22T02:56:35;2266.67;;;578.60;;
70560;SDS011;58109;53.570;10.084;2023-06-22T02:59:03;2266.67;;;654.80;;
70560;SDS011;58109;53.570;10.084;2023-06-22T03:01:30;2266.67;;;551.40;;
70560;SDS011;58109;53.570;10.084;2023-06-22T03:04:03;2266.67;;;639.60;;
70560;SDS011;58109;53.570;10.084;2023-06-22T03:06:29;2266.67;;;547.47;;
70560;SDS011;58109;53.570;10.084;2023-06-22T03:08:58;2266.67;;;655.10;;
70560;SDS011;58109;53.570;10.084;2023-06-22T03:11:24;2266.67;;;618.33;;
70560;SDS011;58109;53.570;10.084;2023-06-22T03:13:50;2266.67;;;560.20;;
70560;SDS011;58109;53.570;10.084;2023-06-22T03:16:17;2266.67;;;624.37;;
70560;SDS011;58109;53.570;10.084;2023-06-22T03:18:45;2266.67;;;691.67;;
70560;SDS011;58109;53.570;10.084;2023-06-22T03:21:10;2266.67;;;561.13;;
70560;SDS011;58109;53.570;10.084;2023-06-22T03:23:40;2266.67;;;703.63;;
70560;SDS011;58109;53.570;10.084;2023-06-22T03:26:06;2266.67;;;576.33;;
70560;SDS011;58109;53.570;10.084;2023-06-22T03:28:31;2266.67;;;709.47;;
70560;SDS011;58109;53.570;10.084;2023-06-22T03:30:59;2266.67;;;672.03;;
70560;SDS011;58109;53.570;10.084;2023-06-22T03:33:31;2266.67;;;789.40;;
70560;SDS011;58109;53.570;10.084;2023-06-22T03:36:02;2266.67;;;573.13;;
70560;SDS011;58109;53.570;10.084;2023-06-22T03:38:28;2266.67;;;724.60;;
70560;SDS011;58109;53.570;10.084;2023-06-22T03:40:55;2266.67;;;642.13;;
70560;SDS011;58109;53.570;10.084;2023-06-22T03:43:21;2266.67;;;752.93;;
70560;SDS011;58109;53.570;10.084;2023-06-22T03:45:49;2266.67;;;838.90;;
70560;SDS011;58109;53.570;10.084;2023-06-22T03:48:16;2266.67;;;881.63;;
70560;SDS011;58109;53.570;10.084;2023-06-22T03:50:42;2266.67;;;840.27;;
70560;SDS011;58109;53.570;10.084;2023-06-22T03:53:10;2266.67;;;555.73;;
70560;SDS011;58109;53.570;10.084;2023-06-22T03:55:45;2266.67;;;728.13;;
70560;SDS011;58109;53.570;10.084;2023-06-22T03:58:18;2266.67;;;731.40;;
70560;SDS011;58109;53.570;10.084;2023-06-22T04:00:46;2266.67;;;743.20;;
70560;SDS011;58109;53.570;10.084;2023-06-22T04:03:13;2266.67;;;560.90;;
70560;SDS011;58109;53.570;10.084;2023-06-22T04:05:39;2266.67;;;639.00;;
70560;SDS011;58109;53.570;10.084;2023-06-22T04:08:05;2266.67;;;545.40;;
70560;SDS011;58109;53.570;10.084;2023-06-22T04:10:33;2266.67;;;624.43;;
70560;SDS011;58109;53.570;10.084;2023-06-22T04:13:01;2266.67;;;818.67;;
70560;SDS011;58109;53.570;10.084;2023-06-22T04:15:28;2266.67;;;682.03;;
70560;SDS011;58109;53.570;10.084;2023-06-22T04:17:59;2266.67;;;688.30;;
70560;SDS011;58109;53.570;10.084;2023-06-22T04:20:25;2266.67;;;832.17;;
70560;SDS011;58109;53.570;10.084;2023-06-22T04:22:52;2266.67;;;838.27;;
70560;SDS011;58109;53.570;10.084;2023-06-22T04:25:20;2266.67;;;612.27;;
70560;SDS011;58109;53.570;10.084;2023-06-22T04:27:47;2266.67;;;755.80;;
70560;SDS011;58109;53.570;10.084;2023-06-22T04:30:14;2266.67;;;962.20;;
70560;SDS011;58109;53.570;10.084;2023-06-22T04:32:41;2266.67;;;999.90;;
70560;SDS011;58109;53.570;10.084;2023-06-22T04:35:06;2266.67;;;810.60;;
70560;SDS011;58109;53.570;10.084;2023-06-22T04:37:32;2266.67;;;768.93;;
70560;SDS011;58109;53.570;10.084;2023-06-22T04:39:58;2266.67;;;742.83;;
70560;SDS011;58109;53.570;10.084;2023-06-22T04:42:26;2266.67;;;748.23;;
70560;SDS011;58109;53.570;10.084;2023-06-22T04:44:53;2266.67;;;702.13;;
70560;SDS011;58109;53.570;10.084;2023-06-22T04:47:20;2266.67;;;582.40;;
70560;SDS011;58109;53.570;10.084;2023-06-22T04:49:49;2266.67;;;577.50;;
70560;SDS011;58109;53.570;10.084;2023-06-22T04:52:14;2266.67;;;782.97;;
70560;SDS011;58109;53.570;10.084;2023-06-22T04:54:45;2266.67;;;758.60;;
70560;SDS011;58109;53.570;10.084;2023-06-22T04:57:13;2266.67;;;650.90;;
70560;SDS011;58109;53.570;10.084;2023-06-22T04:59:39;2266.67;;;648.10;;
70560;SDS011;58109;53.570;10.084;2023-06-22T05:02:06;2266.67;;;571.67;;
70560;SDS011;58109;53.570;10.084;2023-06-22T05:04:32;2266.67;;;619.17;;
70560;SDS011;58109;53.570;10.084;2023-06-22T05:07:00;2266.67;;;579.10;;
70560;SDS011;58109;53.570;10.084;2023-06-22T05:09:29;2264.07;;;460.80;;
70560;SDS011;58109;53.570;10.084;2023-06-22T05:11:54;2266.67;;;533.13;;
70560;SDS011;58109;53.570;10.084;2023-06-22T05:14:21;2266.67;;;513.53;;
70560;SDS011;58109;53.570;10.084;2023-06-22T05:16:52;2266.67;;;474.63;;
70560;SDS011;58109;53.570;10.084;2023-06-22T05:19:20;2266.67;;;455.63;;
70560;SDS011;58109;53.570;10.084;2023-06-22T05:21:45;2266.67;;;498.20;;
70560;SDS011;58109;53.570;10.084;2023-06-22T05:24:11;2266.67;;;544.30;;
70560;SDS011;58109;53.570;10.084;2023-06-22T05:26:36;2266.67;;;495.07;;
70560;SDS011;58109;53.570;10.084;2023-06-22T05:29:04;2266.67;;;512.40;;
70560;SDS011;58109;53.570;10.084;2023-06-22T05:31:32;2266.67;;;542.87;;
70560;SDS011;58109;53.570;10.084;2023-06-22T05:33:58;2266.67;;;510.33;;
70560;SDS011;58109;53.570;10.084;2023-06-22T05:36:26;2266.67;;;462.10;;
70560;SDS011;58109;53.570;10.084;2023-06-22T05:38:52;2266.67;;;508.97;;
70560;SDS011;58109;53.570;10.084;2023-06-22T05:41:22;1714.40;;;385.30;;
70560;SDS011;58109;53.570;10.084;2023-06-22T05:43:50;1906.47;;;416.43;;
70560;SDS011;58109;53.570;10.084;2023-06-22T05:46:15;1373.93;;;331.83;;
70560;SDS011;58109;53.570;10.084;2023-06-22T05:48:43;1486.93;;;349.20;;
70560;SDS011;58109;53.570;10.084;2023-06-22T05:51:11;2210.37;;;453.17;;
70560;SDS011;58109;53.570;10.084;2023-06-22T05:53:36;2266.67;;;470.20;;
70560;SDS011;58109;53.570;10.084;2023-06-22T05:56:04;2266.67;;;537.37;;
70560;SDS011;58109;53.570;10.084;2023-06-22T05:58:29;2266.67;;;520.67;;
70560;SDS011;58109;53.570;10.084;2023-06-22T06:00:55;2266.67;;;561.63;;
70560;SDS011;58109;53.570;10.084;2023-06-22T06:03:21;2114.97;;;440.90;;
70560;SDS011;58109;53.570;10.084;2023-06-22T06:05:46;2266.67;;;489.57;;
70560;SDS011;58109;53.570;10.084;2023-06-22T06:08:14;2266.67;;;596.70;;
70560;SDS011;58109;53.570;10.084;2023-06-22T06:10:39;2266.67;;;544.73;;
70560;SDS011;58109;53.570;10.084;2023-06-22T06:13:04;2266.67;;;492.43;;
70560;SDS011;58109;53.570;10.084;2023-06-22T06:15:33;2266.67;;;723.00;;
70560;SDS011;58109;53.570;10.084;2023-06-22T06:18:01;2266.67;;;528.23;;
70560;SDS011;58109;53.570;10.084;2023-06-22T06:20:30;2266.67;;;983.87;;
70560;SDS011;58109;53.570;10.084;2023-06-22T06:22:56;2266.67;;;753.27;;
70560;SDS011;58109;53.570;10.084;2023-06-22T06:25:24;2266.67;;;667.20;;
70560;SDS011;58109;53.570;10.084;2023-06-22T06:27:50;2266.67;;;526.87;;
70560;SDS011;58109;53.570;10.084;2023-06-22T06:30:22;2266.67;;;607.80;;
70560;SDS011;58109;53.570;10.084;2023-06-22T06:32:47;2266.67;;;567.70;;
70560;SDS011;58109;53.570;10.084;2023-06-22T06:35:13;2266.67;;;689.03;;
70560;SDS011;58109;53.570;10.084;2023-06-22T06:37:40;2266.67;;;767.93;;
70560;SDS011;58109;53.570;10.084;2023-06-22T06:40:09;2266.67;;;664.70;;
70560;SDS011;58109;53.570;10.084;2023-06-22T06:42:43;2266.67;;;949.63;;
70560;SDS011;58109;53.570;10.084;2023-06-22T06:45:15;2266.67;;;913.93;;
70560;SDS011;58109;53.570;10.084;2023-06-22T06:47:47;2266.67;;;983.10;;
70560;SDS011;58109;53.570;10.084;2023-06-22T06:50:18;2266.67;;;818.47;;
70560;SDS011;58109;53.570;10.084;2023-06-22T06:52:43;2266.67;;;616.07;;
70560;SDS011;58109;53.570;10.084;2023-06-22T06:55:15;2266.67;;;711.77;;
70560;SDS011;58109;53.570;10.084;2023-06-22T06:57:41;2266.67;;;716.07;;
70560;SDS011;58109;53.570;10.084;2023-06-22T07:00:12;2266.67;;;811.83;;
70560;SDS011;58109;53.570;10.084;2023-06-22T07:02:42;2266.67;;;846.30;;
70560;SDS011;58109;53.570;10.084;2023-06-22T07:05:09;2266.67;;;999.90;;
70560;SDS011;58109;53.570;10.084;2023-06-22T07:07:35;2050.83;;;446.23;;
70560;SDS011;58109;53.570;10.084;2023-06-22T07:10:03;1647.27;;;383.30;;
70560;SDS011;58109;53.570;10.084;2023-06-22T07:12:29;2266.67;;;529.10;;
70560;SDS011;58109;53.570;10.084;2023-06-22T07:15:00;2266.67;;;637.67;;
70560;SDS011;58109;53.570;10.084;2023-06-22T07:17:27;2266.67;;;741.00;;
70560;SDS011;58109;53.570;10.084;2023-06-22T07:19:52;2266.67;;;901.23;;
70560;SDS011;58109;53.570;10.084;2023-06-22T07:22:20;2266.67;;;905.93;;
70560;SDS011;58109;53.570;10.084;2023-06-22T07:24:45;2266.67;;;796.73;;
70560;SDS011;58109;53.570;10.084;2023-06-22T07:27:11;2266.67;;;893.47;;
70560;SDS011;58109;53.570;10.084;2023-06-22T07:29:41;2266.67;;;745.20;;
70560;SDS011;58109;53.570;10.084;2023-06-22T07:32:08;2266.67;;;778.63;;
70560;SDS011;58109;53.570;10.084;2023-06-22T07:34:33;2266.67;;;820.17;;
70560;SDS011;58109;53.570;10.084;2023-06-22T07:37:01;2266.67;;;792.17;;
70560;SDS011;58109;53.570;10.084;2023-06-22T07:39:29;2266.67;;;838.93;;
70560;SDS011;58109;53.570;10.084;2023-06-22T07:41:55;2266.67;;;979.00;;
70560;SDS011;58109;53.570;10.084;2023-06-22T07:44:20;2266.67;;;999.90;;
70560;SDS011;58109;53.570;10.084;2023-06-22T07:46:46;2266.67;;;897.03;;
70560;SDS011;58109;53.570;10.084;2023-06-22T07:49:12;2266.67;;;999.90;;
70560;SDS011;58109;53.570;10.084;2023-06-22T07:51:39;2266.67;;;967.53;;
70560;SDS011;58109;53.570;10.084;2023-06-22T07:54:05;2266.67;;;874.50;;
70560;SDS011;58109;53.570;10.084;2023-06-22T07:56:33;2266.67;;;999.90;;
70560;SDS011;58109;53.570;10.084;2023-06-22T07:58:59;2266.67;;;999.90;;
70560;SDS011;58109;53.570;10.084;2023-06-22T08:01:25;2266.67;;;867.80;;
70560;SDS011;58109;53.570;10.084;2023-06-22T08:03:51;2266.67;;;999.90;;
70560;SDS011;58109;53.570;10.084;2023-06-22T08:06:19;2266.67;;;999.90;;
70560;SDS011;58109;53.570;10.084;2023-06-22T08:08:44;2266.67;;;999.90;;
70560;SDS011;58109;53.570;10.084;2023-06-22T08:11:20;2266.67;;;999.90;;
70560;SDS011;58109;53.570;10.084;2023-06-22T08:13:49;2266.67;;;999.90;;
70560;SDS011;58109;53.570;10.084;2023-06-22T08:16:15;2266.67;;;999.90;;
70560;SDS011;58109;53.570;10.084;2023-06-22T08:18:40;2266.67;;;999.90;;
70560;SDS011;58109;53.570;10.084;2023-06-22T08:21:05;2266.67;;;999.90;;
70560;SDS011;58109;53.570;10.084;2023-06-22T08:23:36;2266.67;;;999.90;;
70560;SDS011;58109;53.570;10.084;2023-06-22T08:26:01;2266.67;;;999.90;;
70560;SDS011;58109;53.570;10.084;2023-06-22T08:28:31;2266.67;;;999.90;;
70560;SDS011;58109;53.570;10.084;2023-06-22T08:30:57;2266.67;;;999.90;;
70560;SDS011;58109;53.570;10.084;2023-06-22T08:33:23;2266.67;;;999.90;;
70560;SDS011;58109;53.570;10.084;2023-06-22T08:35:53;2266.67;;;999.90;;
70560;SDS011;58109;53.570;10.084;2023-06-22T08:38:22;2266.67;;;999.90;;
70560;SDS011;58109;53.570;10.084;2023-06-22T08:40:50;2266.67;;;894.47;;
70560;SDS011;58109;53.570;10.084;2023-06-22T08:43:15;2266.67;;;823.43;;
70560;SDS011;58109;53.570;10.084;2023-06-22T08:45:46;2266.67;;;970.73;;
70560;SDS011;58109;53.570;10.084;2023-06-22T08:48:11;2266.67;;;999.90;;
70560;SDS011;58109;53.570;10.084;2023-06-22T08:50:39;2266.67;;;999.90;;
70560;SDS011;58109;53.570;10.084;2023-06-22T08:53:08;2266.67;;;999.90;;
70560;SDS011;58109;53.570;10.084;2023-06-22T08:55:36;2266.67;;;999.90;;
70560;SDS011;58109;53.570;10.084;2023-06-22T08:58:01;2266.67;;;999.90;;
70560;SDS011;58109;53.570;10.084;2023-06-22T09:00:28;2266.67;;;999.90;;
70560;SDS011;58109;53.570;10.084;2023-06-22T09:02:59;2266.67;;;999.90;;
70560;SDS011;58109;53.570;10.084;2023-06-22T09:05:25;2266.67;;;999.90;;
70560;SDS011;58109;53.570;10.084;2023-06-22T09:07:52;2266.67;;;999.90;;
70560;SDS011;58109;53.570;10.084;2023-06-22T09:10:20;2266.67;;;999.90;;
70560;SDS011;58109;53.570;10.084;2023-06-22T09:12:47;2266.67;;;999.90;;
70560;SDS011;58109;53.570;10.084;2023-06-22T09:15:20;2266.67;;;999.90;;
70560;SDS011;58109;53.570;10.084;2023-06-22T09:17:46;2266.67;;;999.90;;
70560;SDS011;58109;53.570;10.084;2023-06-22T09:20:13;2266.67;;;999.90;;
70560;SDS011;58109;53.570;10.084;2023-06-22T09:22:39;2266.67;;;999.90;;
70560;SDS011;58109;53.570;10.084;2023-06-22T09:25:09;2266.67;;;886.63;;
70560;SDS011;58109;53.570;10.084;2023-06-22T09:27:35;2266.67;;;999.90;;
70560;SDS011;58109;53.570;10.084;2023-06-22T09:30:03;2266.67;;;999.90;;
70560;SDS011;58109;53.570;10.084;2023-06-22T09:32:32;2266.67;;;999.90;;
70560;SDS011;58109;53.570;10.084;2023-06-22T09:34:57;2266.67;;;999.90;;
70560;SDS011;58109;53.570;10.084;2023-06-22T09:37:23;2266.67;;;999.90;;
70560;SDS011;58109;53.570;10.084;2023-06-22T09:39:48;2266.67;;;999.90;;
70560;SDS011;58109;53.570;10.084;2023-06-22T09:42:13;2266.67;;;832.73;;
70560;SDS011;58109;53.570;10.084;2023-06-22T09:44:44;2266.67;;;949.63;;
70560;SDS011;58109;53.570;10.084;2023-06-22T09:47:09;2266.67;;;999.90;;
70560;SDS011;58109;53.570;10.084;2023-06-22T09:49:34;2266.67;;;999.90;;
70560;SDS011;58109;53.570;10.084;2023-06-22T09:52:02;2266.67;;;999.90;;
70560;SDS011;58109;53.570;10.084;2023-06-22T09:54:27;2266.67;;;999.90;;
70560;SDS011;58109;53.570;10.084;2023-06-22T09:56:56;2266.67;;;999.90;;
70560;SDS011;58109;53.570;10.084;2023-06-22T09:59:23;2266.67;;;999.90;;
70560;SDS011;58109;53.570;10.084;2023-06-22T10:01:51;2266.67;;;999.90;;
70560;SDS011;58109;53.570;10.084;2023-06-22T10:04:17;2266.67;;;993.93;;
70560;SDS011;58109;53.570;10.084;2023-06-22T10:06:42;2266.67;;;999.90;;
70560;SDS011;58109;53.570;10.084;2023-06-22T10:09:10;2266.67;;;999.90;;
70560;SDS011;58109;53.570;10.084;2023-06-22T10:11:35;2266.67;;;999.90;;
70560;SDS011;58109;53.570;10.084;2023-06-22T10:14:02;2266.67;;;999.90;;
70560;SDS011;58109;53.570;10.084;2023-06-22T10:16:32;2266.67;;;999.90;;
70560;SDS011;58109;53.570;10.084;2023-06-22T10:19:00;2266.67;;;999.90;;
70560;SDS011;58109;53.570;10.084;2023-06-22T10:21:29;2266.67;;;999.90;;
70560;SDS011;58109;53.570;10.084;2023-06-22T10:23:57;2266.67;;;999.90;;
70560;SDS011;58109;53.570;10.084;2023-06-22T10:26:24;2266.67;;;999.90;;
70560;SDS011;58109;53.570;10.084;2023-06-22T10:28:49;2266.67;;;999.90;;
70560;SDS011;58109;53.570;10.084;2023-06-22T10:31:18;2266.67;;;999.90;;
70560;SDS011;58109;53.570;10.084;2023-06-22T10:33:45;2266.67;;;999.90;;
70560;SDS011;58109;53.570;10.084;2023-06-22T10:36:14;2266.67;;;999.90;;
70560;SDS011;58109;53.570;10.084;2023-06-22T10:38:42;2266.67;;;908.03;;
70560;SDS011;58109;53.570;10.084;2023-06-22T10:41:07;2266.67;;;914.63;;
70560;SDS011;58109;53.570;10.084;2023-06-22T10:43:35;2266.67;;;888.97;;
70560;SDS011;58109;53.570;10.084;2023-06-22T10:46:04;2266.67;;;899.40;;
70560;SDS011;58109;53.570;10.084;2023-06-22T10:48:32;2266.67;;;999.90;;
70560;SDS011;58109;53.570;10.084;2023-06-22T10:50:59;2266.67;;;747.53;;
70560;SDS011;58109;53.570;10.084;2023-06-22T10:53:27;2266.67;;;802.87;;
70560;SDS011;58109;53.570;10.084;2023-06-22T10:55:52;2266.67;;;902.93;;
70560;SDS011;58109;53.570;10.084;2023-06-22T10:58:18;2266.67;;;756.53;;
70560;SDS011;58109;53.570;10.084;2023-06-22T11:00:46;2266.67;;;857.93;;
70560;SDS011;58109;53.570;10.084;2023-06-22T11:03:12;2266.67;;;892.43;;
70560;SDS011;58109;53.570;10.084;2023-06-22T11:05:39;2266.67;;;849.30;;
70560;SDS011;58109;53.570;10.084;2023-06-22T11:08:04;2266.67;;;964.03;;
70560;SDS011;58109;53.570;10.084;2023-06-22T11:10:29;2266.67;;;922.93;;
70560;SDS011;58109;53.570;10.084;2023-06-22T11:13:00;2266.67;;;999.90;;
70560;SDS011;58109;53.570;10.084;2023-06-22T11:15:25;2266.67;;;999.90;;
70560;SDS011;58109;53.570;10.084;2023-06-22T11:17:51;2266.67;;;999.90;;
70560;SDS011;58109;53.570;10.084;2023-06-22T11:20:16;2266.67;;;744.53;;
70560;SDS011;58109;53.570;10.084;2023-06-22T11:22:44;2266.67;;;931.77;;
70560;SDS011;58109;53.570;10.084;2023-06-22T11:25:10;2266.67;;;999.90;;
70560;SDS011;58109;53.570;10.084;2023-06-22T11:27:37;2266.67;;;999.90;;
70560;SDS011;58109;53.570;10.084;2023-06-22T11:30:05;2266.67;;;999.90;;
70560;SDS011;58109;53.570;10.084;2023-06-22T11:32:33;2266.67;;;999.90;;
70560;SDS011;58109;53.570;10.084;2023-06-22T11:35:01;2266.67;;;832.37;;
70560;SDS011;58109;53.570;10.084;2023-06-22T11:37:28;2266.67;;;893.30;;
70560;SDS011;58109;53.570;10.084;2023-06-22T11:39:54;2266.67;;;999.90;;
70560;SDS011;58109;53.570;10.084;2023-06-22T11:42:22;2266.67;;;999.90;;
70560;SDS011;58109;53.570;10.084;2023-06-22T11:44:51;2266.67;;;999.90;;
70560;SDS011;58109;53.570;10.084;2023-06-22T11:47:16;2266.67;;;999.90;;
70560;SDS011;58109;53.570;10.084;2023-06-22T11:49:42;2266.67;;;999.90;;
70560;SDS011;58109;53.570;10.084;2023-06-22T11:52:07;2266.67;;;999.90;;
70560;SDS011;58109;53.570;10.084;2023-06-22T11:54:32;2266.67;;;999.90;;
70560;SDS011;58109;53.570;10.084;2023-06-22T11:57:02;2266.67;;;999.90;;
70560;SDS011;58109;53.570;10.084;2023-06-22T11:59:31;2266.67;;;999.90;;
70560;SDS011;58109;53.570;10.084;2023-06-22T12:01:58;2266.67;;;999.90;;
70560;SDS011;58109;53.570;10.084;2023-06-22T12:04:28;2266.67;;;999.90;;
70560;SDS011;58109;53.570;10.084;2023-06-22T12:06:56;2266.67;;;999.90;;
70560;SDS011;58109;53.570;10.084;2023-06-22T12:09:23;2266.67;;;999.90;;
70560;SDS011;58109;53.570;10.084;2023-06-22T12:11:48;2266.67;;;999.90;;
70560;SDS011;58109;53.570;10.084;2023-06-22T12:14:14;2266.67;;;999.90;;
70560;SDS011;58109;53.570;10.084;2023-06-22T12:16:42;2266.67;;;999.90;;
70560;SDS011;58109;53.570;10.084;2023-06-22T12:19:09;2266.67;;;999.90;;
70560;SDS011;58109;53.570;10.084;2023-06-22T12:21:37;2266.67;;;999.90;;
70560;SDS011;58109;53.570;10.084;2023-06-22T12:24:05;2266.67;;;999.90;;
70560;SDS011;58109;53.570;10.084;2023-06-22T12:26:31;2266.67;;;999.90;;
70560;SDS011;58109;53.570;10.084;2023-06-22T12:28:59;2266.67;;;999.90;;
70560;SDS011;58109;53.570;10.084;2023-06-22T12:31:24;2266.67;;;999.90;;
70560;SDS011;58109;53.570;10.084;2023-06-22T12:33:49;2266.67;;;999.90;;
70560;SDS011;58109;53.570;10.084;2023-06-22T12:36:17;2266.67;;;999.90;;
70560;SDS011;58109;53.570;10.084;2023-06-22T12:38:45;2266.67;;;999.90;;
70560;SDS011;58109;53.570;10.084;2023-06-22T12:41:13;2266.67;;;999.90;;
70560;SDS011;58109;53.570;10.084;2023-06-22T12:43:38;2266.67;;;999.90;;
70560;SDS011;58109;53.570;10.084;2023-06-22T12:46:08;2266.67;;;999.90;;
70560;SDS011;58109;53.570;10.084;2023-06-22T12:48:36;2266.67;;;999.90;;
70560;SDS011;58109;53.570;10.084;2023-06-22T12:51:07;2266.67;;;999.90;;
70560;SDS011;58109;53.570;10.084;2023-06-22T12:53:36;2266.67;;;999.90;;
70560;SDS011;58109;53.570;10.084;2023-06-22T12:56:02;2266.67;;;999.90;;
70560;SDS011;58109;53.570;10.084;2023-06-22T12:58:27;2266.67;;;999.90;;
70560;SDS011;58109;53.570;10.084;2023-06-22T13:00:53;2266.67;;;999.90;;
70560;SDS011;58109;53.570;10.084;2023-06-22T13:03:20;2266.67;;;999.90;;
70560;SDS011;58109;53.570;10.084;2023-06-22T13:05:50;2266.67;;;999.90;;
70560;SDS011;58109;53.570;10.084;2023-06-22T13:08:15;2266.67;;;999.90;;
70560;SDS011;58109;53.570;10.084;2023-06-22T13:10:43;2266.67;;;999.90;;
70560;SDS011;58109;53.570;10.084;2023-06-22T13:13:08;2266.67;;;999.90;;
70560;SDS011;58109;53.570;10.084;2023-06-22T13:15:36;2266.67;;;999.90;;
70560;SDS011;58109;53.570;10.084;2023-06-22T13:18:01;2266.67;;;999.90;;
70560;SDS011;58109;53.570;10.084;2023-06-22T13:20:29;2266.67;;;999.90;;
70560;SDS011;58109;53.570;10.084;2023-06-22T13:22:55;2266.67;;;999.90;;
70560;SDS011;58109;53.570;10.084;2023-06-22T13:25:21;2266.67;;;999.90;;
70560;SDS011;58109;53.570;10.084;2023-06-22T13:27:53;2266.67;;;999.90;;
70560;SDS011;58109;53.570;10.084;2023-06-22T13:30:19;2266.67;;;999.90;;
70560;SDS011;58109;53.570;10.084;2023-06-22T13:32:47;2266.67;;;999.90;;
70560;SDS011;58109;53.570;10.084;2023-06-22T13:35:12;2266.67;;;999.90;;
70560;SDS011;58109;53.570;10.084;2023-06-22T13:37:42;2266.67;;;999.90;;
70560;SDS011;58109;53.570;10.084;2023-06-22T13:40:10;2266.67;;;999.90;;
70560;SDS011;58109;53.570;10.084;2023-06-22T13:42:36;2266.67;;;999.90;;
70560;SDS011;58109;53.570;10.084;2023-06-22T13:45:04;2266.67;;;999.90;;
70560;SDS011;58109;53.570;10.084;2023-06-22T13:47:29;2266.67;;;999.90;;
70560;SDS011;58109;53.570;10.084;2023-06-22T13:49:58;2266.67;;;999.90;;